createdAt,value
2018-10-11T00:04:11.862Z,11.20
2018-10-11T00:09:08.308Z,10.70
2018-10-11T00:14:01.628Z,10.65
2018-10-11T00:18:54.883Z,12.05
2018-10-11T00:23:48.202Z,11.22
2018-10-11T00:28:41.363Z,10.05
2018-10-11T00:33:34.756Z,10.55
2018-10-11T00:38:27.916Z,11.85
2018-10-11T00:43:21.127Z,10.70
2018-10-11T00:48:14.392Z,11.08
2018-10-11T00:53:08.058Z,12.55
2018-10-11T00:58:01.307Z,11.03
2018-10-11T01:02:54.628Z,9.98
2018-10-11T01:07:48.872Z,10.65
2018-10-11T01:12:42.150Z,9.83
2018-10-11T01:17:35.410Z,9.98
2018-10-11T01:22:28.644Z,9.60
2018-10-11T01:27:21.893Z,10.72
2018-10-11T01:32:15.382Z,10.43
2018-10-11T01:37:08.782Z,9.65
2018-10-11T01:42:02.062Z,8.88
2018-10-11T01:46:55.335Z,9.68
2018-10-11T01:51:48.590Z,9.58
2018-10-11T01:56:42.099Z,9.03
2018-10-11T02:01:35.831Z,9.28
2018-10-11T02:06:29.036Z,8.33
2018-10-11T02:11:22.416Z,8.28
2018-10-11T02:16:15.683Z,8.55
2018-10-11T02:21:08.982Z,8.20
2018-10-11T02:26:02.267Z,8.08
2018-10-11T02:30:55.663Z,8.50
2018-10-11T02:35:48.849Z,8.45
2018-10-11T02:40:42.255Z,8.05
2018-10-11T02:45:35.506Z,8.33
2018-10-11T02:50:28.810Z,7.90
2018-10-11T02:55:25.003Z,6.75
2018-10-11T03:00:18.408Z,7.28
2018-10-11T03:05:14.427Z,6.95
2018-10-11T03:10:07.721Z,6.90
2018-10-11T03:15:00.954Z,6.53
2018-10-11T03:19:54.845Z,10.08
2018-10-11T03:24:48.588Z,7.62
2018-10-11T03:29:42.081Z,6.22
2018-10-11T03:34:35.510Z,6.85
2018-10-11T03:39:29.325Z,8.25
2018-10-11T03:44:22.685Z,7.15
2018-10-11T03:49:16.147Z,7.00
2018-10-11T03:54:09.527Z,7.45
2018-10-11T03:59:03.144Z,7.37
2018-10-11T04:03:57.254Z,9.53
2018-10-11T04:08:50.719Z,7.60
2018-10-11T04:13:44.411Z,8.08
2018-10-11T04:18:38.037Z,7.90
2018-10-11T04:23:31.752Z,8.65
2018-10-11T04:28:25.789Z,8.73
2018-10-11T04:33:19.147Z,9.00
2018-10-11T04:38:12.507Z,9.05
2018-10-11T04:43:06.028Z,9.05
2018-10-11T04:47:59.197Z,10.40
2018-10-11T04:52:52.477Z,9.48
2018-10-11T04:57:45.824Z,9.25
2018-10-11T05:02:39.316Z,11.00
2018-10-11T05:07:32.707Z,10.48
2018-10-11T05:12:26.150Z,9.80
2018-10-11T05:17:19.612Z,9.68
2018-10-11T05:22:12.955Z,8.68
2018-10-11T05:27:07.382Z,9.85
2018-10-11T05:32:00.707Z,8.78
2018-10-11T05:36:54.430Z,9.43
2018-10-11T05:41:47.814Z,10.43
2018-10-11T05:46:41.731Z,9.55
2018-10-11T05:51:35.517Z,9.70
2018-10-11T05:56:30.562Z,10.30
2018-10-11T06:01:24.050Z,11.22
2018-10-11T06:06:17.664Z,10.25
2018-10-11T06:11:11.257Z,9.48
2018-10-11T06:16:04.593Z,9.75
2018-10-11T06:20:58.041Z,9.50
2018-10-11T06:25:51.462Z,18.00
2018-10-11T06:30:45.120Z,9.78
2018-10-11T06:35:38.711Z,9.10
2018-10-11T06:40:36.458Z,7.75
2018-10-11T06:45:30.380Z,8.25
2018-10-11T06:50:23.942Z,9.05
2018-10-11T06:55:17.447Z,8.43
2018-10-11T07:00:11.050Z,9.05
2018-10-11T07:05:04.702Z,8.35
2018-10-11T07:09:58.314Z,8.40
2018-10-11T07:14:52.715Z,8.65
2018-10-11T07:19:46.310Z,7.85
2018-10-11T07:24:39.738Z,7.95
2018-10-11T07:29:33.283Z,8.53
2018-10-11T07:34:26.478Z,8.73
2018-10-11T07:39:19.857Z,8.10
2018-10-11T07:44:13.279Z,8.93
2018-10-11T07:49:07.487Z,8.40
2018-10-11T07:54:01.352Z,8.50
2018-10-11T07:58:54.833Z,9.75
2018-10-11T08:03:48.300Z,10.48
2018-10-11T08:08:41.558Z,9.55
2018-10-11T08:13:34.971Z,9.40
2018-10-11T08:18:28.314Z,9.38
2018-10-11T08:23:21.777Z,8.98
2018-10-11T08:28:15.289Z,8.75
2018-10-11T08:33:08.733Z,8.68
2018-10-11T08:38:02.467Z,8.93
2018-10-11T08:42:55.732Z,7.95
2018-10-11T08:47:49.352Z,7.42
2018-10-11T08:52:42.685Z,11.10
2018-10-11T08:57:36.348Z,6.78
2018-10-11T09:02:29.756Z,7.10
2018-10-11T09:07:23.209Z,6.33
2018-10-11T09:12:16.481Z,5.78
2018-10-11T09:17:09.802Z,5.65
2018-10-11T09:22:03.037Z,5.25
2018-10-11T09:26:56.503Z,6.42
2018-10-11T09:31:49.895Z,5.08
2018-10-11T09:36:43.138Z,5.45
2018-10-11T09:41:36.830Z,4.85
2018-10-11T09:46:30.394Z,5.40
2018-10-11T09:51:23.544Z,4.58
2018-10-11T09:56:16.967Z,6.00
2018-10-11T10:01:15.672Z,5.12
2018-10-11T10:06:09.495Z,5.40
2018-10-11T10:11:02.824Z,5.10
2018-10-11T10:15:56.087Z,4.92
2018-10-11T10:20:49.354Z,5.30
2018-10-11T10:25:42.610Z,6.08
2018-10-11T10:30:41.195Z,6.03
2018-10-11T10:35:34.389Z,5.70
2018-10-11T10:40:27.633Z,5.70
2018-10-11T10:45:21.073Z,5.30
2018-10-11T10:50:14.391Z,5.05
2018-10-11T10:55:07.905Z,6.78
2018-10-11T11:00:02.136Z,6.22
2018-10-11T11:04:55.339Z,6.22
2018-10-11T11:09:48.600Z,8.25
2018-10-11T11:14:42.840Z,7.15
2018-10-11T11:19:36.133Z,7.40
2018-10-11T11:24:30.008Z,7.47
2018-10-11T11:29:23.295Z,7.87
2018-10-11T11:34:16.567Z,8.58
2018-10-11T11:39:14.030Z,6.65
2018-10-11T11:44:08.333Z,7.83
2018-10-11T11:49:01.521Z,7.75
2018-10-11T11:53:55.165Z,8.30
2018-10-11T11:58:49.352Z,8.38
2018-10-11T12:03:42.705Z,8.05
2018-10-11T12:08:36.575Z,8.20
2018-10-11T12:13:29.747Z,8.03
2018-10-11T12:18:23.336Z,9.68
2018-10-11T12:23:16.602Z,7.28
2018-10-11T12:28:10.103Z,7.47
2018-10-11T12:33:06.565Z,9.75
2018-10-11T12:38:00.411Z,8.40
2018-10-11T12:42:53.782Z,8.35
2018-10-11T12:47:47.174Z,9.23
2018-10-11T12:52:41.586Z,9.80
2018-10-11T12:57:34.866Z,10.00
2018-10-11T13:02:29.607Z,10.55
2018-10-11T13:07:22.781Z,9.28
2018-10-11T13:12:16.182Z,10.03
2018-10-11T13:17:11.921Z,10.98
2018-10-11T13:22:05.366Z,10.63
2018-10-11T13:26:59.794Z,11.18
2018-10-11T13:31:53.381Z,11.45
2018-10-11T13:36:46.745Z,13.25
2018-10-11T13:41:40.411Z,12.00
2018-10-11T13:46:33.704Z,10.20
2018-10-11T13:51:33.249Z,12.40
2018-10-11T13:56:28.761Z,11.20
2018-10-11T14:01:22.865Z,11.57
2018-10-11T14:06:17.288Z,12.05
2018-10-11T14:11:12.186Z,11.28
2018-10-11T14:16:05.619Z,12.10
2018-10-11T14:20:59.381Z,13.90
2018-10-11T14:25:53.240Z,11.35
2018-10-11T14:30:47.212Z,13.30
2018-10-11T14:35:40.543Z,12.93
2018-10-11T14:40:34.165Z,12.40
2018-10-11T14:45:27.437Z,12.03
2018-10-11T14:50:25.433Z,12.88
2018-10-11T14:55:18.796Z,14.73
2018-10-11T15:00:12.168Z,14.25
2018-10-11T15:05:05.664Z,12.50
2018-10-11T15:09:59.408Z,13.62
2018-10-11T15:14:52.728Z,13.50
2018-10-11T15:19:48.730Z,13.72
2018-10-11T15:24:42.298Z,12.47
2018-10-11T15:29:35.675Z,14.07
2018-10-11T15:34:29.279Z,13.75
2018-10-11T15:39:25.823Z,13.35
2018-10-11T15:44:19.839Z,12.05
2018-10-11T15:49:16.943Z,16.23
2018-10-11T15:54:10.387Z,13.75
2018-10-11T15:59:04.830Z,12.82
2018-10-11T16:03:58.031Z,14.03
2018-10-11T16:08:53.063Z,13.78
2018-10-11T16:13:46.519Z,13.08
2018-10-11T16:18:39.918Z,14.58
2018-10-11T16:23:33.527Z,17.15
2018-10-11T16:28:26.735Z,16.30
2018-10-11T16:33:23.160Z,17.00
2018-10-11T16:38:18.383Z,16.10
2018-10-11T16:43:13.949Z,17.02
2018-10-11T16:48:08.045Z,17.50
2018-10-11T16:53:05.419Z,16.52
2018-10-11T16:58:00.947Z,16.35
2018-10-11T17:02:56.632Z,17.90
2018-10-11T17:07:51.719Z,15.50
2018-10-11T17:12:47.477Z,16.42
2018-10-11T17:17:41.548Z,13.75
2018-10-11T17:22:36.130Z,16.93
2018-10-11T17:27:32.556Z,16.82
2018-10-11T17:32:28.021Z,16.55
2018-10-11T17:37:21.467Z,17.57
2018-10-11T17:42:16.466Z,16.80
2018-10-11T17:47:09.812Z,16.75
2018-10-11T17:52:03.179Z,17.52
2018-10-11T17:57:00.369Z,17.95
2018-10-11T18:01:55.636Z,17.37
2018-10-11T18:06:49.393Z,17.80
2018-10-11T18:11:43.890Z,17.52
2018-10-11T18:16:38.402Z,16.35
2018-10-11T18:21:31.906Z,18.12
2018-10-11T18:26:25.703Z,15.15
2018-10-11T18:31:21.293Z,17.70
2018-10-11T18:36:15.342Z,14.28
2018-10-11T18:41:15.264Z,15.80
2018-10-11T18:46:09.062Z,18.10
2018-10-11T18:51:05.093Z,13.93
2018-10-11T18:55:58.327Z,14.28
2018-10-11T19:00:53.349Z,16.12
2018-10-11T19:05:46.697Z,16.45
2018-10-11T19:10:40.612Z,15.05
2018-10-11T19:15:35.077Z,14.90
2018-10-11T19:20:31.323Z,14.90
2018-10-11T19:25:25.224Z,13.20
2018-10-11T19:30:18.869Z,14.98
2018-10-11T19:35:12.597Z,15.63
2018-10-11T19:40:06.239Z,15.50
2018-10-11T19:45:00.471Z,16.48
2018-10-11T19:49:54.593Z,15.90
2018-10-11T19:54:48.385Z,17.57
2018-10-11T19:59:42.024Z,13.00
2018-10-11T20:04:35.579Z,14.45
2018-10-11T20:09:28.887Z,15.70
2018-10-11T20:14:22.529Z,15.40
2018-10-11T20:19:16.269Z,16.73
2018-10-11T20:24:10.171Z,14.40
2018-10-11T20:29:03.632Z,11.73
2018-10-11T20:33:57.275Z,14.28
2018-10-11T20:38:51.265Z,12.53
2018-10-11T20:43:45.602Z,13.25
2018-10-11T20:48:39.390Z,13.90
2018-10-11T20:53:32.789Z,14.28
2018-10-11T20:58:26.353Z,13.78
2018-10-11T21:03:19.808Z,14.45
2018-10-11T21:08:13.220Z,13.32
2018-10-11T21:13:07.125Z,14.90
2018-10-11T21:18:01.734Z,12.63
2018-10-11T21:22:55.279Z,12.88
2018-10-11T21:27:49.885Z,12.75
2018-10-11T21:32:43.304Z,11.68
2018-10-11T21:37:37.670Z,13.75
2018-10-11T21:42:30.999Z,13.98
2018-10-11T21:47:24.376Z,15.08
2018-10-11T21:52:17.687Z,14.33
2018-10-11T21:57:11.535Z,9.98
2018-10-11T22:02:06.118Z,13.58
2018-10-11T22:06:59.381Z,12.37
2018-10-11T22:11:53.263Z,11.88
2018-10-11T22:16:46.689Z,12.13
2018-10-11T22:21:40.350Z,12.53
2018-10-11T22:26:33.894Z,11.95
2018-10-11T22:31:27.518Z,12.23
2018-10-11T22:36:20.718Z,11.93
2018-10-11T22:41:14.191Z,10.20
2018-10-11T22:46:08.608Z,11.75
2018-10-11T22:51:03.637Z,12.63
2018-10-11T22:55:56.979Z,12.35
2018-10-11T23:00:50.366Z,14.60
2018-10-11T23:05:44.624Z,13.80
2018-10-11T23:10:38.198Z,13.75
2018-10-11T23:15:31.690Z,11.93
2018-10-11T23:20:24.983Z,15.85
2018-10-11T23:25:18.625Z,12.85
2018-10-11T23:30:12.634Z,13.85
2018-10-11T23:35:06.552Z,13.95
2018-10-11T23:40:00.457Z,15.28
2018-10-11T23:44:55.215Z,7.42
2018-10-11T23:49:48.754Z,12.40
2018-10-11T23:54:43.122Z,11.60
2018-10-11T23:59:37.555Z,12.37
